Time;durP1;ratioP1;P1;durP2;ratioP2;P2;SDS_P1;SDS_P2;PMS_P1;PMS_P2;Temp;Humidity;BMP_temperature;BMP_pressure;BME280_temperature;BME280_humidity;BME280_pressure;Samples;Min_cycle;Max_cycle;Signal;HPM_P1;HPM_P2
2022/09/19 00:01:29;;;;;;;5.35;1.05;;;11.70;99.90;;;;;;4884119;29;20055;-86
2022/09/19 00:03:59;;;;;;;3.67;0.40;;;11.70;99.90;;;;;;4899675;29;20055;-86
2022/09/19 00:06:27;;;;;;;1.40;0.50;;;12.20;99.90;;;;;;4883807;29;20043;-86
2022/09/19 00:08:54;;;;;;;2.53;0.52;;;11.70;99.90;;;;;;4884929;29;20044;-86
2022/09/19 00:11:21;;;;;;;3.55;0.57;;;11.70;99.90;;;;;;4884149;29;20375;-86
2022/09/19 00:13:49;;;;;;;2.72;0.63;;;11.70;99.90;;;;;;4900652;29;20196;-86
2022/09/19 00:16:22;;;;;;;4.20;0.80;;;11.70;99.90;;;;;;4884062;29;20137;-86
2022/09/19 00:18:50;;;;;;;8.02;1.15;;;11.70;99.90;;;;;;4884836;29;20044;-86
2022/09/19 00:21:31;;;;;;;7.30;1.42;;;11.70;99.90;;;;;;4884356;29;20040;-86
2022/09/19 00:26:45;;;;;;;7.03;1.80;;;11.60;99.90;;;;;;4899331;29;20123;-86
2022/09/19 00:29:12;;;;;;;2.75;0.73;;;11.60;99.90;;;;;;4884206;29;20047;-86
2022/09/19 00:31:38;;;;;;;6.15;1.10;;;11.60;99.90;;;;;;4884200;29;20047;-86
2022/09/19 00:34:08;;;;;;;1.65;0.60;;;12.10;99.90;;;;;;4872650;29;20051;-86
2022/09/19 00:36:38;;;;;;;3.63;0.75;;;11.50;99.90;;;;;;4903713;29;20376;-85
2022/09/19 00:39:05;;;;;;;8.38;0.90;;;11.50;99.90;;;;;;4888043;29;20487;-86
2022/09/19 00:41:31;;;;;;;2.92;0.50;;;11.60;99.90;;;;;;4903594;29;20048;-86
2022/09/19 00:44:20;;;;;;;2.88;0.85;;;11.50;99.90;;;;;;4903801;29;20055;-85
2022/09/19 00:46:47;;;;;;;2.17;0.57;;;11.50;99.90;;;;;;4902822;29;20040;-85
2022/09/19 00:49:19;;;;;;;3.35;0.75;;;11.60;99.90;;;;;;4872766;29;20040;-85
2022/09/19 00:51:51;;;;;;;2.25;0.70;;;11.40;99.90;;;;;;4895153;29;20123;-85
2022/09/19 00:54:27;;;;;;;4.28;0.68;;;11.40;99.90;;;;;;4868946;29;20042;-85
2022/09/19 00:56:54;;;;;;;5.60;0.85;;;11.30;99.90;;;;;;4870963;29;20373;-85
2022/09/19 00:59:23;;;;;;;1.73;0.60;;;11.30;99.90;;;;;;4872147;29;20427;-85
2022/09/19 01:01:53;;;;;;;1.17;0.70;;;11.30;99.90;;;;;;4871983;29;20051;-86
2022/09/19 01:04:21;;;;;;;1.85;0.60;;;11.30;99.90;;;;;;4903051;29;20491;-86
2022/09/19 01:06:59;;;;;;;1.88;0.60;;;11.30;99.90;;;;;;4887294;29;20051;-86
2022/09/19 01:09:36;;;;;;;4.05;0.98;;;11.30;99.90;;;;;;4887242;29;20055;-86
2022/09/19 01:12:23;;;;;;;5.93;0.60;;;11.30;99.90;;;;;;4887124;29;20064;-86
2022/09/19 01:14:53;;;;;;;;;;;11.30;99.90;;;;;;4903353;29;20059;-86
2022/09/19 01:17:21;;;;;;;2.72;0.70;;;11.40;99.90;;;;;;4886909;29;19978;-86
2022/09/19 01:19:46;;;;;;;4.40;0.55;;;11.30;99.90;;;;;;4902569;29;20419;-86
2022/09/19 01:22:40;;;;;;;7.18;1.02;;;11.40;99.90;;;;;;4902779;29;20046;-86
2022/09/19 01:25:46;;;;;;;2.20;0.47;;;11.30;99.90;;;;;;4887230;29;20044;-86
2022/09/19 01:28:21;;;;;;;1.77;0.55;;;11.30;99.90;;;;;;4886778;29;20190;-85
2022/09/19 01:31:17;;;;;;;4.90;1.85;;;11.20;99.90;;;;;;4883961;29;20051;-85
2022/09/19 01:34:05;;;;;;;6.57;1.00;;;11.10;99.90;;;;;;4898074;29;20045;-86
2022/09/19 01:36:35;;;;;;;2.65;0.95;;;11.10;99.90;;;;;;4862059;29;20048;-86
2022/09/19 01:39:04;;;;;;;3.88;0.93;;;11.10;99.90;;;;;;4888217;29;20045;-86
2022/09/19 01:41:30;;;;;;;7.82;1.20;;;11.00;99.90;;;;;;4902608;29;20066;-86
2022/09/19 01:44:05;;;;;;;3.25;1.05;;;11.00;99.90;;;;;;4885910;29;20047;-86
2022/09/19 01:46:52;;;;;;;2.92;0.90;;;11.00;99.90;;;;;;4886729;29;20048;-86
2022/09/19 01:49:24;;;;;;;5.30;1.27;;;11.00;99.90;;;;;;4901483;29;20406;-86
2022/09/19 01:51:57;;;;;;;3.13;0.93;;;11.00;99.90;;;;;;4899397;29;20048;-85
2022/09/19 01:54:30;;;;;;;3.75;0.77;;;11.00;99.90;;;;;;4887000;29;20380;-85
2022/09/19 01:56:58;;;;;;;4.18;0.82;;;11.10;99.90;;;;;;4886437;29;20384;-86
2022/09/19 01:59:36;;;;;;;5.75;0.95;;;11.00;99.90;;;;;;4886671;29;20051;-85
2022/09/19 02:02:46;;;;;;;5.20;0.85;;;11.00;99.90;;;;;;4901225;29;20052;-85
2022/09/19 02:05:36;;;;;;;3.10;0.90;;;11.00;99.90;;;;;;4812275;29;20119;-85
2022/09/19 02:08:14;;;;;;;3.83;0.73;;;11.00;99.90;;;;;;4827253;29;20081;-85
2022/09/19 02:10:49;;;;;;;1.20;0.50;;;11.00;99.90;;;;;;4877449;29;20052;-85
2022/09/19 02:13:17;;;;;;;8.18;1.02;;;10.30;99.90;;;;;;4883102;29;20140;-85
2022/09/19 02:15:49;;;;;;;5.97;1.00;;;12.10;99.90;;;;;;4852334;29;20484;-86
2022/09/19 02:18:29;;;;;;;4.80;0.82;;;11.40;99.90;;;;;;4883448;29;20096;-86
2022/09/19 02:21:03;;;;;;;10.82;1.15;;;11.50;99.90;;;;;;4888666;29;20048;-86
2022/09/19 02:23:32;;;;;;;2.13;0.70;;;11.60;99.90;;;;;;4885594;29;20526;-85
2022/09/19 02:25:59;;;;;;;2.38;0.50;;;11.60;99.90;;;;;;4885475;29;20040;-85
2022/09/19 02:28:38;;;;;;;6.40;1.42;;;12.10;99.90;;;;;;4886401;29;20517;-86
2022/09/19 02:31:05;;;;;;;3.60;1.17;;;11.70;99.90;;;;;;4886068;29;20044;-86
2022/09/19 02:33:34;;;;;;;4.80;1.42;;;11.70;99.90;;;;;;4870938;29;20112;-85
2022/09/19 02:36:17;;;;;;;8.77;2.10;;;11.80;99.90;;;;;;4886301;29;20049;-85
2022/09/19 02:39:03;;;;;;;8.55;1.30;;;11.80;99.90;;;;;;4918203;29;20083;-86
2022/09/19 02:41:52;;;;;;;0.98;0.50;;;11.90;99.90;;;;;;4885443;29;20043;-85
2022/09/19 02:44:27;;;;;;;3.53;0.82;;;11.80;99.90;;;;;;4885523;29;20048;-85
2022/09/19 02:47:02;;;;;;;3.35;0.95;;;11.80;99.90;;;;;;4885728;29;20490;-85
2022/09/19 02:49:43;;;;;;;1.63;0.50;;;11.80;99.90;;;;;;4873942;29;20044;-86
2022/09/19 02:52:17;;;;;;;3.42;0.50;;;11.80;99.90;;;;;;4893093;29;20303;-85
2022/09/19 02:54:49;;;;;;;3.60;1.20;;;11.90;99.90;;;;;;4901141;29;20052;-86
2022/09/19 02:57:19;;;;;;;1.90;0.45;;;11.80;99.90;;;;;;4885636;29;20570;-85
2022/09/19 02:59:49;;;;;;;2.90;0.90;;;12.00;99.90;;;;;;4885582;29;20139;-85
2022/09/19 03:02:23;;;;;;;8.98;1.20;;;11.90;99.90;;;;;;4900654;29;20058;-85
2022/09/19 03:04:56;;;;;;;8.02;1.38;;;11.90;99.90;;;;;;4885096;29;20036;-85
2022/09/19 03:07:30;;;;;;;2.00;0.70;;;11.90;99.90;;;;;;4885549;29;20075;-85
2022/09/19 03:10:07;;;;;;;2.45;0.68;;;12.00;99.90;;;;;;4885424;29;20040;-85
2022/09/19 03:12:57;;;;;;;4.60;0.82;;;12.00;99.90;;;;;;4884959;29;20059;-85
2022/09/19 03:15:36;;;;;;;4.45;1.08;;;12.00;99.90;;;;;;4874339;29;20039;-85
2022/09/19 03:18:13;;;;;;;4.85;0.80;;;12.00;99.90;;;;;;4885789;29;20199;-85
2022/09/19 03:20:44;;;;;;;3.42;0.90;;;12.00;99.90;;;;;;4900356;29;20044;-85
2022/09/19 03:23:12;;;;;;;1.13;0.47;;;12.00;99.90;;;;;;4884999;29;20147;-85
2022/09/19 03:25:38;;;;;;;6.53;0.90;;;11.90;99.90;;;;;;4884768;29;20047;-85
2022/09/19 03:28:04;;;;;;;3.53;0.52;;;11.90;99.90;;;;;;4900632;29;20044;-85
2022/09/19 03:30:29;;;;;;;5.22;0.90;;;12.60;99.90;;;;;;4900728;29;20036;-85
2022/09/19 03:32:55;;;;;;;1.85;0.68;;;11.80;99.90;;;;;;4869555;29;20051;-86
2022/09/19 03:35:22;;;;;;;2.55;0.60;;;11.70;99.90;;;;;;4854048;29;20040;-86
2022/09/19 03:37:50;;;;;;;4.80;0.70;;;11.60;99.90;;;;;;4869633;29;20082;-86
2022/09/19 03:40:16;;;;;;;2.45;0.80;;;11.50;99.90;;;;;;4885274;29;20056;-85
2022/09/19 03:42:44;;;;;;;3.40;0.90;;;;;;;;;;4866265;29;20104;-85
2022/09/19 03:45:10;;;;;;;2.50;0.80;;;11.30;99.90;;;;;;4893839;29;20116;-86
2022/09/19 03:47:38;;;;;;;4.45;0.77;;;11.20;99.90;;;;;;4869652;29;20207;-85
2022/09/19 03:50:06;;;;;;;5.88;0.88;;;11.20;99.90;;;;;;4868526;29;20127;-86
2022/09/19 03:52:33;;;;;;;2.38;0.95;;;11.10;99.90;;;;;;4868612;29;20048;-85
2022/09/19 03:55:00;;;;;;;2.60;0.57;;;11.00;99.90;;;;;;4884604;29;20574;-85
2022/09/19 03:57:26;;;;;;;5.30;0.65;;;10.90;99.90;;;;;;4869177;29;20055;-85
2022/09/19 03:59:51;;;;;;;1.35;0.50;;;10.90;99.90;;;;;;4868823;29;20044;-85
2022/09/19 04:02:17;;;;;;;8.68;0.98;;;10.80;99.90;;;;;;4899102;29;20040;-86
2022/09/19 04:04:43;;;;;;;1.85;0.40;;;10.70;99.90;;;;;;4864806;29;20037;-85
2022/09/19 04:07:09;;;;;;;2.20;0.60;;;10.90;99.90;;;;;;4865405;29;20036;-85
2022/09/19 04:09:34;;;;;;;5.18;1.13;;;10.60;99.90;;;;;;4851331;29;20048;-85
2022/09/19 04:12:03;;;;;;;2.78;0.70;;;10.60;99.90;;;;;;4881171;29;20511;-85
2022/09/19 04:14:29;;;;;;;4.00;0.85;;;10.60;99.90;;;;;;4892585;29;20131;-85
2022/09/19 04:16:55;;;;;;;2.40;0.45;;;11.30;99.90;;;;;;4884013;29;20055;-85
2022/09/19 04:19:26;;;;;;;2.17;0.63;;;11.20;99.90;;;;;;4884598;29;20506;-85
2022/09/19 04:21:58;;;;;;;0.93;0.40;;;10.50;99.90;;;;;;4885042;29;20487;-85
2022/09/19 04:24:25;;;;;;;3.67;1.00;;;10.50;99.90;;;;;;4884563;29;20048;-85
2022/09/19 04:26:51;;;;;;;5.78;0.95;;;10.50;99.90;;;;;;4879898;23;20063;-84
2022/09/19 04:29:19;;;;;;;3.42;0.50;;;10.50;99.90;;;;;;4880191;29;20048;-85
2022/09/19 04:31:46;;;;;;;2.63;1.00;;;10.50;99.90;;;;;;4864141;29;20127;-85
2022/09/19 04:34:14;;;;;;;4.75;0.80;;;10.90;99.90;;;;;;4865473;29;20506;-84
2022/09/19 04:36:41;;;;;;;3.50;0.65;;;10.50;99.90;;;;;;4881101;29;20487;-84
2022/09/19 04:39:06;;;;;;;7.82;0.80;;;10.50;99.90;;;;;;4850807;29;20134;-85
2022/09/19 04:41:37;;;;;;;2.25;0.65;;;10.50;99.90;;;;;;4865184;29;20575;-85
2022/09/19 04:44:04;;;;;;;3.88;0.65;;;10.50;99.90;;;;;;4865761;29;20045;-86
2022/09/19 04:46:32;;;;;;;3.00;0.80;;;10.80;99.90;;;;;;4880946;29;20032;-85
2022/09/19 04:48:59;;;;;;;7.07;1.30;;;10.70;99.90;;;;;;4850309;29;20046;-85
2022/09/19 04:51:26;;;;;;;1.33;0.65;;;10.90;99.90;;;;;;4881396;29;20040;-85
2022/09/19 04:53:51;;;;;;;1.27;0.60;;;11.00;99.90;;;;;;4881134;29;20108;-85
2022/09/19 04:56:18;;;;;;;1.65;0.70;;;11.10;99.90;;;;;;4865174;29;20044;-85
2022/09/19 04:58:47;;;;;;;4.68;0.77;;;11.10;99.90;;;;;;4881119;29;20049;-85
2022/09/19 05:01:14;;;;;;;1.08;0.47;;;11.20;99.90;;;;;;4863467;29;20045;-85
2022/09/19 05:03:43;;;;;;;1.75;0.65;;;11.20;99.90;;;;;;4864388;29;20048;-85
2022/09/19 05:06:10;;;;;;;6.28;1.13;;;11.30;99.90;;;;;;4862531;29;20045;-85
2022/09/19 05:08:37;;;;;;;6.18;1.00;;;11.30;99.90;;;;;;4862682;29;20092;-85
2022/09/19 05:11:06;;;;;;;8.15;0.70;;;11.30;99.90;;;;;;4832611;29;20052;-86
2022/09/19 05:13:34;;;;;;;4.93;0.57;;;11.30;99.90;;;;;;4864797;29;20049;-85
2022/09/19 05:16:01;;;;;;;6.88;0.88;;;11.40;99.90;;;;;;4864722;29;20449;-85
2022/09/19 05:18:27;;;;;;;4.10;0.45;;;11.40;99.90;;;;;;4869686;29;20041;-85
2022/09/19 05:20:54;;;;;;;4.68;0.60;;;11.40;99.90;;;;;;4849476;29;20400;-85
2022/09/19 05:23:24;;;;;;;4.22;0.63;;;11.40;99.90;;;;;;4851464;29;20040;-85
2022/09/19 05:25:54;;;;;;;1.35;0.50;;;11.40;99.90;;;;;;4860979;29;20029;-85
2022/09/19 05:28:27;;;;;;;4.43;0.68;;;11.30;99.90;;;;;;4879897;29;20052;-85
2022/09/19 05:30:55;;;;;;;2.72;0.60;;;11.30;99.90;;;;;;4864894;29;20048;-85
2022/09/19 05:37:25;;;;;;;3.30;0.73;;;11.20;99.90;;;;;;4803809;29;20546;-86
2022/09/19 05:39:50;;;;;;;2.50;0.52;;;11.50;99.90;;;;;;4767673;29;20133;-86
2022/09/19 05:42:16;;;;;;;4.90;0.68;;;11.40;99.90;;;;;;4864108;29;20082;-86
2022/09/19 05:44:42;;;;;;;2.65;0.57;;;11.40;99.90;;;;;;4865078;29;20469;-86
2022/09/19 05:47:09;;;;;;;5.03;0.88;;;11.40;99.90;;;;;;4862517;29;20033;-86
2022/09/19 05:49:35;;;;;;;6.55;0.75;;;11.50;99.90;;;;;;4865564;29;20396;-86
2022/09/19 06:00:18;;;;;;;2.38;0.80;;;11.00;99.90;;;;;;4742020;30;20818;-86
2022/09/19 06:02:58;;;;;;;2.45;0.55;;;12.30;99.90;;;;;;4733838;30;20066;-85
2022/09/19 06:15:37;;;;;;;0.57;0.30;;;12.10;99.90;;;;;;5772527;23;20060;-84
2022/09/19 06:18:15;;;;;;;3.40;0.77;;;12.20;99.90;;;;;;4868355;29;20044;-85
2022/09/19 06:20:42;;;;;;;1.48;0.38;;;13.30;99.90;;;;;;4853072;29;20037;-85
2022/09/19 06:23:18;;;;;;;2.25;0.60;;;13.40;99.90;;;;;;4868635;29;20049;-85
2022/09/19 06:25:50;;;;;;;6.03;0.98;;;13.20;99.90;;;;;;4884018;29;20036;-86
2022/09/19 06:28:25;;;;;;;5.43;0.95;;;13.30;99.90;;;;;;4852231;29;20403;-86
2022/09/19 06:31:43;;;;;;;2.35;0.93;;;13.40;99.90;;;;;;4851049;29;20049;-86
2022/09/19 06:38:16;;;;;;;5.38;0.98;;;14.20;99.90;;;;;;4875466;29;20099;-84
2022/09/19 06:41:09;;;;;;;4.85;1.02;;;13.60;99.90;;;;;;4865832;29;20049;-84
2022/09/19 06:43:54;;;;;;;2.45;0.43;;;13.60;99.90;;;;;;4867341;29;20487;-84
2022/09/19 06:46:23;;;;;;;6.50;0.63;;;13.50;99.90;;;;;;4867501;29;20080;-84
2022/09/19 06:48:53;;;;;;;4.97;0.85;;;13.70;99.90;;;;;;4851685;29;20040;-84
2022/09/19 06:51:19;;;;;;;9.23;1.10;;;14.20;99.90;;;;;;4865581;29;20053;-84
2022/09/19 06:53:48;;;;;;;3.42;0.90;;;14.50;99.90;;;;;;4883432;29;20037;-85
2022/09/19 06:56:14;;;;;;;4.38;1.05;;;14.50;99.90;;;;;;4837110;29;20049;-85
2022/09/19 06:58:40;;;;;;;2.55;0.90;;;14.60;99.90;;;;;;4851826;29;20044;-85
2022/09/19 07:01:07;;;;;;;1.73;0.50;;;14.80;99.90;;;;;;4836881;29;20396;-85
2022/09/19 07:03:42;;;;;;;2.47;0.60;;;15.00;99.90;;;;;;4868881;29;20041;-85
2022/09/19 07:06:08;;;;;;;3.67;0.80;;;15.30;99.90;;;;;;4866573;29;20105;-85
2022/09/19 07:08:35;;;;;;;6.30;0.68;;;14.70;99.90;;;;;;4851698;29;20044;-86
2022/09/19 07:11:01;;;;;;;3.55;1.08;;;15.20;99.90;;;;;;4851209;29;20052;-86
2022/09/19 07:13:31;;;;;;;1.35;0.30;;;15.00;99.90;;;;;;4863922;29;20051;-86
2022/09/19 07:16:08;;;;;;;5.50;1.35;;;15.60;99.90;;;;;;4863824;29;20049;-86
2022/09/19 07:18:38;;;;;;;5.05;1.25;;;15.90;99.90;;;;;;4870485;29;20127;-86
2022/09/19 07:21:10;;;;;;;2.58;0.43;;;15.90;99.90;;;;;;4839537;29;20044;-86
2022/09/19 07:23:36;;;;;;;5.22;0.73;;;15.90;99.90;;;;;;4851766;29;20040;-86
2022/09/19 07:26:03;;;;;;;3.88;0.80;;;16.00;99.90;;;;;;4851661;29;20491;-85
2022/09/19 07:28:41;;;;;;;6.03;0.85;;;15.80;99.90;;;;;;4841389;29;20060;-85
2022/09/19 07:31:07;;;;;;;5.82;1.05;;;16.00;99.90;;;;;;4848381;29;20041;-86
2022/09/19 07:33:33;;;;;;;6.50;0.80;;;17.40;99.90;;;;;;4848503;29;20049;-87
2022/09/19 07:36:00;;;;;;;2.80;1.73;;;19.00;99.90;;;;;;4866663;29;20045;-87
2022/09/19 07:38:28;;;;;;;1.55;0.63;;;19.60;99.90;;;;;;4866648;29;20100;-92
2022/09/19 07:40:54;;;;;;;2.60;0.75;;;20.30;99.90;;;;;;4881767;29;20119;-88
2022/09/19 07:43:20;;;;;;;3.17;0.82;;;20.30;99.90;;;;;;4865933;29;20140;-89
2022/09/19 07:45:51;;;;;;;3.83;0.63;;;21.00;99.90;;;;;;4866507;29;20052;-89
2022/09/19 07:48:20;;;;;;;5.10;0.55;;;22.00;98.60;;;;;;4865984;29;20044;-88
2022/09/19 07:50:49;;;;;;;3.95;0.70;;;22.70;97.30;;;;;;4866191;29;20048;-90
2022/09/19 07:53:23;;;;;;;6.38;1.02;;;22.80;95.90;;;;;;4881274;29;20076;-90
2022/09/19 07:55:53;;;;;;;4.22;1.42;;;22.20;96.50;;;;;;4881920;29;20080;-90
2022/09/19 07:58:24;;;;;;;6.75;0.82;;;21.30;96.10;;;;;;4866700;29;20083;-88
2022/09/19 08:00:51;;;;;;;8.25;1.40;;;20.40;97.20;;;;;;4866217;29;20040;-88
2022/09/19 08:03:18;;;;;;;3.15;0.90;;;19.90;99.90;;;;;;4866707;29;20432;-88
2022/09/19 08:05:46;;;;;;;3.50;1.67;;;20.50;99.90;;;;;;4882020;29;20041;-88
2022/09/19 08:08:14;;;;;;;5.07;1.48;;;21.10;98.00;;;;;;4882009;29;20083;-88
2022/09/19 08:10:41;;;;;;;4.10;1.38;;;22.00;97.60;;;;;;4866042;29;20068;-88
2022/09/19 08:13:11;;;;;;;2.80;0.57;;;22.00;97.10;;;;;;4866296;29;20068;-88
2022/09/19 08:15:38;;;;;;;3.75;0.90;;;22.10;96.90;;;;;;4866248;29;20064;-88
2022/09/19 08:18:14;;;;;;;3.05;0.93;;;22.80;96.40;;;;;;4866515;29;20206;-88
2022/09/19 08:20:41;;;;;;;0.68;0.28;;;23.90;94.90;;;;;;4866050;29;20044;-88
2022/09/19 08:23:09;;;;;;;2.42;0.75;;;24.70;94.60;;;;;;4866078;29;20041;-87
2022/09/19 08:25:38;;;;;;;4.22;1.00;;;24.80;91.70;;;;;;4866189;29;20095;-87
2022/09/19 08:28:04;;;;;;;1.95;0.68;;;24.20;90.80;;;;;;4866016;29;20044;-88
2022/09/19 08:30:32;;;;;;;4.20;0.73;;;22.90;92.70;;;;;;4866344;29;20399;-92
2022/09/19 08:33:00;;;;;;;2.25;0.60;;;22.60;93.50;;;;;;4851306;29;20041;-92
2022/09/19 08:35:27;;;;;;;1.48;0.68;;;23.00;92.40;;;;;;4851391;29;20418;-92
2022/09/19 08:37:55;;;;;;;2.75;0.82;;;24.00;91.70;;;;;;4851922;29;20044;-92
2022/09/19 08:40:28;;;;;;;6.93;1.48;;;24.60;91.90;;;;;;4863942;29;20045;-93
2022/09/19 08:43:14;;;;;;;2.88;1.15;;;25.60;90.40;;;;;;4881082;29;20077;-92
2022/09/19 08:46:18;;;;;;;5.03;1.45;;;26.10;88.30;;;;;;4865803;29;20048;-92
2022/09/19 08:49:00;;;;;;;4.60;1.50;;;26.50;89.30;;;;;;4889444;29;20205;-92
2022/09/19 08:51:50;;;;;;;3.88;1.48;;;27.20;88.40;;;;;;4863348;29;20055;-92
2022/09/19 08:54:30;;;;;;;4.03;1.02;;;27.30;83.70;;;;;;4868672;29;20116;-92
2022/09/19 08:56:58;;;;;;;3.15;1.10;;;27.00;83.70;;;;;;4884963;29;20132;-89
2022/09/19 08:59:31;;;;;;;5.78;1.45;;;27.20;87.80;;;;;;4854228;29;20051;-89
2022/09/19 09:02:22;;;;;;;2.35;0.60;;;27.20;83.40;;;;;;4869112;29;20440;-89
2022/09/19 09:04:48;;;;;;;8.57;1.27;;;27.50;85.50;;;;;;4869377;29;20040;-92
2022/09/19 09:07:41;;;;;;;1.52;0.88;;;27.80;84.40;;;;;;4853557;29;20036;-92
2022/09/19 09:10:37;;;;;;;3.10;0.45;;;28.00;81.60;;;;;;4862180;29;20432;-92
2022/09/19 09:13:42;;;;;;;3.67;0.93;;;27.90;81.20;;;;;;4866744;29;20055;-93
2022/09/19 09:16:30;;;;;;;3.30;0.85;;;27.90;79.40;;;;;;4868322;29;20071;-93
2022/09/19 09:19:02;;;;;;;4.53;0.80;;;28.10;81.90;;;;;;4868595;29;20056;-92
2022/09/19 09:21:31;;;;;;;3.92;1.10;;;28.20;81.80;;;;;;4878571;29;20407;-89
2022/09/19 09:24:03;;;;;;;5.75;0.75;;;28.80;80.60;;;;;;4869049;29;20107;-90
2022/09/19 09:26:36;;;;;;;3.15;0.82;;;28.60;77.30;;;;;;4865346;29;20593;-89
2022/09/19 09:29:12;;;;;;;2.85;1.15;;;27.60;78.40;;;;;;4881304;29;20083;-89
2022/09/19 09:31:51;;;;;;;;;;;26.60;80.70;;;;;;4851148;29;20176;-88
2022/09/19 09:34:30;;;;;;;2.80;0.82;;;26.00;80.00;;;;;;4860226;29;19926;-89
2022/09/19 09:37:29;;;;;;;4.32;1.15;;;25.70;81.10;;;;;;4868800;29;20052;-89
2022/09/19 09:40:12;;;;;;;3.20;0.77;;;26.50;81.40;;;;;;4868578;29;20459;-89
2022/09/19 09:42:41;;;;;;;5.97;1.00;;;27.40;80.30;;;;;;4884088;29;20112;-89
2022/09/19 09:45:34;;;;;;;1.95;0.82;;;26.90;80.90;;;;;;4868761;29;20490;-89
2022/09/19 09:48:14;;;;;;;2.72;0.98;;;26.70;81.30;;;;;;4884508;29;20049;-90
2022/09/19 09:50:48;;;;;;;4.35;0.95;;;26.90;80.30;;;;;;4868461;29;20395;-92
2022/09/19 09:53:51;;;;;;;4.63;1.20;;;26.50;79.80;;;;;;4868566;29;20045;-93
2022/09/19 09:56:40;;;;;;;3.00;0.70;;;25.70;81.30;;;;;;4865379;29;20495;-91
2022/09/19 10:03:34;;;;;;;3.75;0.80;;;24.80;82.90;;;;;;4865233;29;20049;-89
2022/09/19 10:05:02;;;;;;;2.00;0.60;;;22.70;89.30;;;;;;4883013;29;20059;-89
2022/09/19 10:07:46;;;;;;;4.55;1.27;;;22.10;91.20;;;;;;4868836;29;20083;-89
2022/09/19 10:10:16;;;;;;;2.25;0.57;;;21.60;91.70;;;;;;4883596;29;20036;-89
2022/09/19 10:12:54;;;;;;;2.88;1.08;;;21.20;93.10;;;;;;4866826;29;20087;-90
2022/09/19 10:15:23;;;;;;;3.67;1.05;;;21.80;94.80;;;;;;4871316;29;20124;-90
2022/09/19 10:17:57;;;;;;;0.88;0.20;;;23.20;92.30;;;;;;4877408;29;20048;-90
2022/09/19 10:20:34;;;;;;;1.90;0.80;;;24.50;91.60;;;;;;4868161;29;20048;-89
2022/09/19 10:23:00;;;;;;;1.98;0.68;;;25.60;90.90;;;;;;4883460;29;20445;-89
2022/09/19 10:25:26;;;;;;;3.22;0.95;;;26.30;90.00;;;;;;4860145;29;20114;-89
2022/09/19 10:27:52;;;;;;;6.55;1.33;;;26.50;85.70;;;;;;4838678;29;20047;-89
2022/09/19 10:30:27;;;;;;;3.65;0.85;;;26.70;87.90;;;;;;4867891;29;20063;-88
2022/09/19 10:32:54;;;;;;;4.75;1.27;;;27.20;87.00;;;;;;4883571;29;20103;-88
2022/09/19 10:35:31;;;;;;;2.05;0.63;;;28.20;86.60;;;;;;4867191;29;20048;-88
2022/09/19 10:38:17;;;;;;;4.13;1.30;;;28.40;83.20;;;;;;4883081;29;20044;-88
2022/09/19 10:41:01;;;;;;;3.92;1.45;;;28.40;85.80;;;;;;4864349;29;20125;-88
2022/09/19 10:43:52;;;;;;;3.75;1.08;;;28.70;84.50;;;;;;4882876;29;20104;-88
2022/09/19 10:46:22;;;;;;;3.83;1.20;;;28.50;81.90;;;;;;4881412;29;20080;-89
2022/09/19 10:48:56;;;;;;;3.88;0.80;;;27.80;80.30;;;;;;4881552;29;20048;-89
2022/09/19 10:51:31;;;;;;;6.43;1.20;;;26.60;80.70;;;;;;4883236;29;20369;-89
2022/09/19 10:53:57;;;;;;;3.53;0.75;;;25.00;81.10;;;;;;4882714;29;20503;-89
2022/09/19 10:56:29;;;;;;;3.10;0.82;;;23.70;83.50;;;;;;4876215;29;20037;-89
2022/09/19 10:59:18;;;;;;;2.38;1.05;;;23.10;86.60;;;;;;4866950;29;20529;-89
2022/09/19 11:02:09;;;;;;;3.80;1.02;;;22.90;87.40;;;;;;4876330;29;20049;-89
2022/09/19 11:04:36;;;;;;;2.58;0.93;;;22.70;85.20;;;;;;4871999;29;20048;-89
2022/09/19 11:07:16;;;;;;;3.28;0.90;;;22.30;87.50;;;;;;4875522;29;20043;-89
2022/09/19 11:09:44;;;;;;;3.58;0.98;;;21.80;86.90;;;;;;4880900;29;20036;-89
2022/09/19 11:12:13;;;;;;;4.25;1.17;;;21.30;89.50;;;;;;4863824;29;20407;-89
2022/09/19 11:14:59;;;;;;;5.45;1.00;;;20.60;91.10;;;;;;4871755;29;20104;-89
2022/09/19 11:18:02;;;;;;;1.67;0.70;;;19.90;92.80;;;;;;4846988;29;20503;-91
2022/09/19 11:20:34;;;;;;;4.40;1.27;;;19.20;95.20;;;;;;4863790;29;20045;-92
2022/09/19 11:23:38;;;;;;;5.20;0.80;;;18.40;97.80;;;;;;4854614;29;20052;-92
2022/09/19 11:26:29;;;;;;;8.95;1.60;;;17.80;98.40;;;;;;4866897;29;20081;-92
2022/09/19 11:29:26;;;;;;;5.30;1.00;;;17.30;99.90;;;;;;4866723;29;20169;-91
2022/09/19 11:32:12;;;;;;;3.00;0.95;;;17.20;99.90;;;;;;4863308;29;20450;-91
2022/09/19 11:34:47;;;;;;;6.65;1.38;;;17.20;99.90;;;;;;4866499;29;20052;-92
2022/09/19 11:37:47;;;;;;;5.63;1.10;;;17.50;99.90;;;;;;4866502;29;20040;-92
2022/09/19 11:40:31;;;;;;;1.80;0.63;;;17.70;99.90;;;;;;4866518;29;20558;-92
2022/09/19 11:43:03;;;;;;;3.13;0.70;;;18.20;99.90;;;;;;4866156;29;20044;-91
2022/09/19 11:45:41;;;;;;;1.38;0.60;;;19.10;99.90;;;;;;4866504;29;20040;-92
2022/09/19 11:48:44;;;;;;;3.85;0.98;;;19.70;99.90;;;;;;4863230;29;20052;-92
2022/09/19 11:51:17;;;;;;;4.07;1.27;;;19.90;97.80;;;;;;4863873;29;20049;-89
2022/09/19 11:53:49;;;;;;;4.53;0.85;;;19.90;99.70;;;;;;4862658;29;20100;-89
2022/09/19 11:56:41;;;;;;;5.57;1.17;;;20.30;98.00;;;;;;4847812;29;20044;-89
2022/09/19 11:59:49;;;;;;;3.08;1.00;;;20.80;98.40;;;;;;4859741;29;20068;-87
2022/09/19 12:02:44;;;;;;;4.80;0.80;;;21.60;96.70;;;;;;4841228;29;20064;-87
2022/09/19 12:05:23;;;;;;;7.32;1.23;;;22.50;95.60;;;;;;4880689;29;20053;-87
2022/09/19 12:08:13;;;;;;;2.40;0.60;;;22.80;95.20;;;;;;4872540;29;20123;-86
2022/09/19 12:11:05;;;;;;;3.30;1.08;;;22.30;94.30;;;;;;4859386;29;20060;-86
2022/09/19 12:13:42;;;;;;;5.28;1.00;;;21.40;93.70;;;;;;4867784;29;20041;-86
2022/09/19 12:16:35;;;;;;;4.20;1.40;;;20.50;95.40;;;;;;4877573;29;20522;-85
2022/09/19 12:19:10;;;;;;;7.32;0.90;;;19.40;95.40;;;;;;4875733;29;20076;-86
2022/09/19 12:25:48;;;;;;;2.85;0.60;;;17.70;99.90;;;;;;4825055;29;20106;-87
2022/09/19 12:28:20;;;;;;;3.20;1.15;;;16.80;99.90;;;;;;4774724;29;20087;-87
2022/09/19 12:31:02;;;;;;;1.83;0.73;;;16.30;99.90;;;;;;4883556;29;20464;-87
2022/09/19 12:34:11;;;;;;;0.95;0.50;;;15.70;99.90;;;;;;4878119;29;20468;-88
2022/09/19 12:37:18;;;;;;;;;;;;;;;;;;;;;
2022/09/19 12:40:22;;;;;;;1.88;0.60;;;15.30;99.90;;;;;;4860099;29;20128;-88
2022/09/19 12:43:32;;;;;;;3.85;0.70;;;15.80;99.90;;;;;;4881042;29;20052;-87
2022/09/19 12:46:23;;;;;;;3.08;0.85;;;15.10;99.90;;;;;;4868923;29;20052;-87
2022/09/19 12:49:03;;;;;;;3.17;1.05;;;14.10;99.90;;;;;;4851274;29;20045;-87
2022/09/19 12:51:56;;;;;;;2.42;0.70;;;15.00;99.90;;;;;;4858101;29;20036;-87
2022/09/19 12:57:53;;;;;;;;;;;14.70;99.90;;;;;;4878059;29;20041;-89
2022/09/19 13:00:29;;;;;;;3.65;1.23;;;15.50;99.90;;;;;;4872563;29;19920;-89
2022/09/19 13:03:13;;;;;;;5.22;0.90;;;15.60;99.90;;;;;;4869429;29;20044;-89
2022/09/19 13:05:46;;;;;;;3.70;0.63;;;15.70;99.90;;;;;;4869191;29;20048;-89
2022/09/19 13:08:55;;;;;;;3.47;0.85;;;15.80;99.90;;;;;;4884746;29;20180;-89
2022/09/19 13:11:38;;;;;;;5.20;1.38;;;16.00;99.90;;;;;;4854484;29;20053;-89
2022/09/19 13:14:44;;;;;;;3.20;1.17;;;16.20;99.90;;;;;;4870948;29;20041;-86
2022/09/19 13:25:43;;;;;;;2.53;0.65;;;18.20;99.90;;;;;;4865628;29;20049;-86
2022/09/19 13:38:55;;;;;;;4.07;0.70;;;19.10;99.90;;;;;;3198440;27;20056;-83
2022/09/19 13:41:34;;;;;;;4.30;1.15;;;19.00;99.90;;;;;;4884838;29;20494;-83
2022/09/19 13:44:20;;;;;;;2.88;0.68;;;18.70;99.90;;;;;;4893301;29;20525;-83
2022/09/19 13:47:11;;;;;;;7.53;1.33;;;18.70;99.90;;;;;;4897044;29;20040;-83
2022/09/19 13:49:45;;;;;;;5.25;1.08;;;18.70;98.90;;;;;;4896387;29;20044;-83
2022/09/19 13:52:21;;;;;;;4.40;0.95;;;18.70;98.50;;;;;;4896414;29;20044;-83
2022/09/19 13:55:06;;;;;;;4.97;0.70;;;18.40;99.90;;;;;;4901311;29;20570;-85
2022/09/19 13:57:33;;;;;;;3.20;0.60;;;18.30;99.40;;;;;;4898113;29;20044;-85
2022/09/19 14:00:32;;;;;;;4.07;1.50;;;18.50;99.10;;;;;;4906693;29;20131;-86
2022/09/19 14:03:26;;;;;;;4.53;1.15;;;18.60;99.90;;;;;;4900003;29;20056;-85
2022/09/19 14:06:17;;;;;;;4.63;1.13;;;18.80;99.20;;;;;;4896710;29;20048;-86
2022/09/19 14:08:43;;;;;;;3.33;0.82;;;18.60;97.00;;;;;;4892287;29;20044;-86
2022/09/19 14:11:11;;;;;;;1.05;0.50;;;18.40;97.10;;;;;;4880735;29;20123;-83
2022/09/19 14:21:26;;;;;;;2.10;0.68;;;18.30;96.60;;;;;;5272094;23;20056;-82
2022/09/19 14:23:59;;;;;;;2.67;0.63;;;18.20;97.20;;;;;;4894832;29;20049;-83
2022/09/19 14:26:46;;;;;;;1.88;0.63;;;18.20;97.70;;;;;;4892738;29;20057;-82
2022/09/19 14:29:42;;;;;;;0.40;0.25;;;18.20;95.40;;;;;;4892236;29;20502;-82
2022/09/19 14:32:27;;;;;;;2.60;0.85;;;18.10;94.40;;;;;;4870334;29;20131;-83
2022/09/19 14:35:15;;;;;;;1.50;0.55;;;18.10;95.60;;;;;;4895786;29;20048;-83
2022/09/19 14:37:55;;;;;;;2.75;0.90;;;18.10;94.90;;;;;;4898221;29;20139;-85